• Join FlightAware (Why Join?)
  • Login
  • US Flag 
 
04:56AM EST


 

Airport Tracker/Info


-or-


 

Live Flight TrackerFlight Track Log ✈ N611W ✈ 07-Oct-2013 ✈ KDQH - KISM

Flight Track Log - Related Links

Times and Time Zones

All times are in EDT time to prevent confusion due to time zone crossing. See the N611W flight status page for this flight to view local times or setup timezone preferences in your user account.

Time Position Orientation Groundspeed Altitude Reporting Facility
EDT Latitude Longitude Course Direction KTS MPH feet Rate Location/Type
10:54AM 31.3981 -82.8561 360° North 133 153 3,100  Level Jacksonville Center
10:54AM 31.3981 -82.8561 192° South 133 153 3,100 720 Level Jacksonville Center
10:55AM 31.3669 -82.8414 158° South 153 176 3,700 900 Climbing Jacksonville Center
10:55AM 31.3564 -82.8367 159° South 148 170 4,000 960 Climbing Jacksonville Center
10:56AM 31.3314 -82.8269 162° South 147 169 4,700 960 Climbing Jacksonville Center
10:56AM 31.3208 -82.8219 158° South 141 162 5,000 480 Climbing Jacksonville Center
10:57AM 31.2917 -82.8147 168° South 147 169 5,200  Climbing Jacksonville Center
10:57AM 31.2728 -82.8075 162° South 157 181 5,000 -120 Descending Jacksonville Center
10:58AM 31.2478 -82.8003 166° South 153 176 5,100  Climbing Jacksonville Center
10:58AM 31.2269 -82.7931 163° South 169 194 5,000 -120 Descending Jacksonville Center
10:59AM 31.1978 -82.7833 164° South 172 198 5,000  Level Jacksonville Center
10:59AM 31.1811 -82.7783 166° South 171 197 5,000 -120 Level Jacksonville Center
11:00AM 31.1558 -82.7711 166° South 172 198 4,900  Descending Jacksonville Center
11:00AM 31.1308 -82.7639 166° South 173 199 5,000 60 Climbing Jacksonville Center
11:01AM 31.1058 -82.7519 158° South 172 198 5,000  Level Jacksonville Center
11:01AM 31.0892 -82.7444 159° South 172 198 5,000  Level Jacksonville Center
11:02AM 31.0578 -82.7350 166° South 167 192 5,000  Level Jacksonville Center
11:02AM 31.0411 -82.7278 160° South 168 193 5,000  Level Jacksonville Center
11:03AM 31.0139 -82.7181 163° South 167 192 5,000  Level Jacksonville Center
11:04AM 30.9722 -82.7061 166° South 174 200 5,000  Level Jacksonville Center
11:05AM 30.9261 -82.6939 167° South 174 200 5,000  Level Jacksonville Center
11:06AM 30.8822 -82.6844 170° South 174 200 5,000  Level Jacksonville Center
11:07AM 30.8364 -82.6747 170° South 174 200 5,000  Level Jacksonville Center
11:08AM 30.7883 -82.6678 173° South 174 200 5,000 -60 Level Jacksonville Center
11:09AM 30.7403 -82.6558 168° South 174 200 4,900 -60 Descending Jacksonville Center
11:10AM 30.6942 -82.6439 167° South 174 200 4,900  Level Jacksonville Center
11:11AM 30.6483 -82.6317 167° South 174 200 4,900  Level Jacksonville Center
11:12AM 30.6044 -82.6197 167° South 174 200 5,000  Climbing Jacksonville Center
11:13AM 30.5586 -82.6078 167° South 174 200 5,000 -60 Level Jacksonville Center
11:14AM 30.5147 -82.5961 167° South 169 194 4,900  Descending Jacksonville Center
11:15AM 30.4708 -82.5842 167° South 169 194 5,000  Climbing Jacksonville Center
11:16AM 30.4247 -82.5722 167° South 164 189 5,000  Level Jacksonville Center
11:17AM 30.3789 -82.5603 167° South 164 189 5,000  Level Jacksonville Center
11:18AM 30.3328 -82.5461 165° South 164 189 5,000  Level Jacksonville Center
11:19AM 30.2869 -82.5342 167° South 164 189 5,000  Level Jacksonville Center
11:20AM 30.2431 -82.5222 167° South 164 189 5,000  Level Jacksonville Center
11:21AM 30.1969 -82.5106 168° South 164 189 5,000  Level Jacksonville Center
11:22AM 30.1511 -82.4986 167° South 164 189 5,000  Level Jacksonville Center
11:22AM 30.1261 -82.4939 171° South 167 192 5,000  Level Jacksonville Center
11:23AM 30.1050 -82.4867 164° South 164 189 5,000  Level Jacksonville Center
11:23AM 30.0989 -82.4869 182° South 167 192 5,000 60 Level Jacksonville Center
11:24AM 30.0611 -82.4750 165° South 164 189 5,100  Climbing Jacksonville Center
11:24AM 30.0528 -82.4775 195° South 167 192 5,000 -120 Descending Jacksonville Center
11:25AM 30.0194 -82.4656 163° South 164 189 5,000  Level Jacksonville Center
11:25AM 30.0069 -82.4656 180° South 167 192 5,000  Level Jacksonville Center
11:26AM 29.9733 -82.4539 163° South 164 189 5,000  Level Jacksonville Center
11:26AM 29.9631 -82.4539 180° South 161 185 5,000  Level Jacksonville Center
11:27AM 29.9317 -82.4394 158° South 164 189 5,000  Level Jacksonville Center
11:27AM 29.9150 -82.4397 181° South 164 189 5,000 -120 Level Jacksonville Center
11:28AM 29.8711 -82.4278 167° South 164 189 4,900 -60 Descending Jacksonville Center
11:29AM 29.8417 -82.4186 165° South 164 189 4,900  Level Jacksonville Center
11:29AM 29.8250 -82.4161 173° South 165 190 4,900 60 Level Jacksonville Center
11:30AM 29.7958 -82.4067 164° South 164 189 5,000  Climbing Jacksonville Center
11:30AM 29.7811 -82.4044 173° South 166 191 4,900 -120 Descending Jacksonville Center
11:31AM 29.7519 -82.3950 164° South 164 189 4,900  Level Jacksonville Center
11:31AM 29.7331 -82.3903 168° South 165 190 4,900  Level Jacksonville Center
11:32AM 29.7061 -82.3808 163° South 164 189 4,900  Level Jacksonville Center
11:32AM 29.6892 -82.3761 166° South 167 192 4,900 60 Level Jacksonville Center
11:33AM 29.6433 -82.3669 170° South 164 189 5,000  Climbing Jacksonville Center
11:34AM 29.5994 -82.3528 164° South 165 190 5,000  Level Jacksonville Center
11:35AM 29.5556 -82.3411 167° South 167 192 5,000  Level Jacksonville Center
11:36AM 29.5033 -82.3294 169° South 171 197 5,000  Level Jacksonville Center
11:37AM 29.4614 -82.3058 154° Southeast 172 198 5,000  Level Jacksonville Center
11:38AM 29.4194 -82.2847 156° South 172 198 5,000  Level Jacksonville Center
11:39AM 29.3736 -82.2633 158° South 172 198 5,000  Level Jacksonville Center
11:40AM 29.3275 -82.2494 165° South 168 193 5,000  Level Jacksonville Center
11:41AM 29.2794 -82.2331 163° South 177 204 5,000 -60 Level Jacksonville Center
11:42AM 29.2356 -82.2192 165° South 174 200 4,900 -60 Descending Jacksonville Center
11:43AM 29.1917 -82.2075 167° South 173 199 4,900  Level Jacksonville Center
11:44AM 29.1394 -82.1889 163° South 173 199 5,000  Climbing Jacksonville Center
11:45AM 29.0956 -82.1750 165° South 172 198 5,000  Level Jacksonville Center
11:46AM 29.0472 -82.1586 163° South 172 198 5,000  Level Jacksonville Center
11:47AM 28.9992 -82.1519 173° South 174 200 5,000  Level Jacksonville Center
11:48AM 28.9450 -82.1453 174° South 172 198 5,000  Level Jacksonville Center
11:49AM 28.8989 -82.1383 172° South 171 197 5,100  Climbing Jacksonville Center
11:50AM 28.8508 -82.1292 171° South 171 197 5,000 -60 Descending Jacksonville Center
11:51AM 28.8028 -82.1250 176° South 170 196 5,000  Level Jacksonville Center
11:53AM 28.7167 -82.1000 166° South 168 193 5,100  Climbing Orlando TRACON
11:54AM 28.6833 -82.0667 139° Southeast 190 219 5,100  Level Orlando TRACON
11:55AM 28.6667 -82.0167 111° Southeast 195 224 5,100  Level Orlando TRACON
11:56AM 28.6500 -81.9500 106° East 195 224 5,100 -120 Level Orlando TRACON
11:57AM 28.6500 -81.8833 90° East 197 227 4,900 -300 Descending Orlando TRACON
11:58AM 28.6333 -81.8333 111° Southeast 200 230 4,600 -360 Descending Orlando TRACON
11:59AM 28.6167 -81.7833 111° Southeast 194 223 4,300 -360 Descending Orlando TRACON
12:00PM 28.5833 -81.7167 120° Southeast 190 219 4,000 -300 Descending Orlando TRACON
12:01PM 28.5500 -81.6833 139° Southeast 188 216 3,700 -360 Descending Orlando TRACON
12:02PM 28.5167 -81.6500 139° Southeast 172 198 3,400 -360 Descending Orlando TRACON
12:03PM 28.4833 -81.6000 127° Southeast 184 212 3,100 -480 Descending Orlando TRACON
12:04PM 28.4500 -81.5667 139° Southeast 179 206 2,500 -540 Descending Orlando TRACON
12:05PM 28.4000 -81.5333 150° Southeast 165 190 2,000 -480 Descending Orlando TRACON
12:06PM 28.3667 -81.5000 139° Southeast 158 182 1,500 -480 Descending Orlando TRACON
12:07PM 28.3500 -81.4833 139° Southeast 121 139 1,100 -360 Descending Orlando TRACON
12:08PM 28.3167 -81.4667 156° South 90 104 800 -300 Descending Orlando TRACON
12:10PM 28.2833 -81.4333 139° Southeast  Level FlightAware Approximate
12:17PM 28.2898 -81.4371 139° Southeast  Level Estimated
12:18PM 28.2898 -81.4371 139° Southeast  Level Estimated
12:19PM 28.2898 -81.4371 139° Southeast  Level Estimated
12:20PM 28.2898 -81.4371 139° Southeast  Level Estimated